Time;durP1;ratioP1;P1;durP2;ratioP2;P2;SDS_P1;SDS_P2;PMS_P1;PMS_P2;Temp;Humidity;BMP_temperature;BMP_pressure;BME280_temperature;BME280_humidity;BME280_pressure;Samples;Min_cycle;Max_cycle;Signal;HPM_P1;HPM_P2
2022/09/21 00:01:14;;;;;;;8.25;6.68;;;;;;;7.19;81.26;99104.50;7385515;19;20039;-70
2022/09/21 00:03:42;;;;;;;11.75;7.43;;;;;;;7.09;80.92;99103.53;7391260;19;20366;-71
2022/09/21 00:06:12;;;;;;;13.32;7.22;;;;;;;6.85;81.48;99104.41;7393278;19;20493;-71
2022/09/21 00:08:39;;;;;;;13.32;8.27;;;;;;;6.80;82.00;99106.53;7392918;19;20035;-71
2022/09/21 00:11:07;;;;;;;15.35;8.20;;;;;;;6.86;81.67;99108.72;7395252;19;20018;-72
2022/09/21 00:13:36;;;;;;;13.60;8.05;;;;;;;6.85;81.87;99101.78;7393761;19;20023;-71
2022/09/21 00:16:07;;;;;;;13.63;8.60;;;;;;;6.72;81.98;99109.75;7391266;19;20015;-71
2022/09/21 00:18:35;;;;;;;10.17;7.70;;;;;;;6.62;82.10;99110.53;7389742;19;20481;-72
2022/09/21 00:21:06;;;;;;;12.10;7.97;;;;;;;6.71;82.17;99104.56;7395591;19;20014;-71
2022/09/21 00:23:34;;;;;;;15.98;7.95;;;;;;;6.76;81.81;99103.28;7396994;19;20010;-72
2022/09/21 00:26:12;;;;;;;11.50;7.60;;;;;;;6.73;81.71;99106.16;7394955;19;20014;-71
2022/09/21 00:28:39;;;;;;;15.60;7.53;;;;;;;6.63;81.89;99106.94;7390148;19;20022;-71
2022/09/21 00:31:10;;;;;;;9.80;7.83;;;;;;;6.55;82.51;99107.50;7397969;19;20011;-71
2022/09/21 00:33:38;;;;;;;14.40;8.10;;;;;;;6.57;82.79;99109.06;7395720;19;20014;-71
2022/09/21 00:36:06;;;;;;;16.00;8.17;;;;;;;6.62;82.88;99100.00;7394018;19;20014;-71
2022/09/21 00:38:33;;;;;;;11.23;7.97;;;;;;;6.76;82.68;99107.72;7392939;19;20034;-71
2022/09/21 00:41:00;;;;;;;15.03;7.57;;;;;;;6.85;82.50;99107.03;7395957;19;20014;-71
2022/09/21 00:43:27;;;;;;;12.67;7.77;;;;;;;6.89;82.08;99097.13;7393943;19;20047;-71
2022/09/21 00:46:05;;;;;;;11.73;7.63;;;;;;;6.90;81.92;99098.78;7394145;19;20018;-72
2022/09/21 00:48:33;;;;;;;10.00;7.00;;;;;;;6.86;82.05;99106.06;7394027;19;20033;-71
2022/09/21 00:51:05;;;;;;;15.88;7.22;;;;;;;6.88;81.78;99108.59;7392095;19;20022;-71
2022/09/21 00:53:32;;;;;;;11.10;7.43;;;;;;;7.02;81.72;99111.88;7396081;19;20026;-72
2022/09/21 00:56:01;;;;;;;14.77;7.03;;;;;;;7.01;81.76;99101.47;7394379;19;20038;-72
2022/09/21 00:58:31;;;;;;;12.80;7.32;;;;;;;7.04;81.37;99102.06;7391090;19;20019;-71
2022/09/21 01:00:59;;;;;;;10.20;7.10;;;;;;;7.09;81.27;99107.00;7392044;19;20509;-71
2022/09/21 01:03:27;;;;;;;15.18;7.20;;;;;;;7.12;80.98;99106.75;7387862;19;20019;-72
2022/09/21 01:05:55;;;;;;;11.63;7.13;;;;;;;7.01;81.31;99114.63;7394185;19;20039;-72
2022/09/21 01:08:24;;;;;;;12.10;7.10;;;;;;;7.03;81.33;99105.66;7392375;19;20056;-72
2022/09/21 01:11:07;;;;;;;12.65;7.60;;;;;;;7.00;81.16;99111.16;7392543;19;20015;-72
2022/09/21 01:13:42;;;;;;;12.20;7.30;;;;;;;6.95;81.08;99105.41;7393932;19;20022;-72
2022/09/21 01:16:11;;;;;;;12.50;6.90;;;;;;;6.97;81.04;99105.28;7390978;19;20014;-72
2022/09/21 01:19:06;;;;;;;12.93;7.25;;;;;;;6.99;80.98;99112.09;7391618;19;20003;-72
2022/09/21 01:22:02;;;;;;;11.88;7.10;;;;;;;6.90;81.24;99104.03;7391317;19;20050;-72
2022/09/21 01:24:49;;;;;;;15.55;7.60;;;;;;;6.80;81.39;99110.00;7394623;19;20051;-71
2022/09/21 01:27:30;;;;;;;10.05;6.90;;;;;;;6.70;81.34;99109.00;7390809;19;20079;-72
2022/09/21 01:30:04;;;;;;;10.13;7.13;;;;;;;6.59;82.09;99106.34;7394950;19;20396;-71
2022/09/21 01:32:32;;;;;;;16.70;7.87;;;;;;;6.70;81.86;99110.81;7391904;19;20018;-71
2022/09/21 01:35:08;;;;;;;11.53;6.70;;;;;;;6.57;81.74;99114.31;7390404;19;20019;-71
2022/09/21 01:37:39;;;;;;;11.83;7.10;;;;;;;6.34;82.22;99120.41;7390805;19;20448;-70
2022/09/21 01:40:11;;;;;;;14.50;6.88;;;;;;;6.49;81.48;99115.84;7391297;19;20010;-71
2022/09/21 01:42:39;;;;;;;10.73;7.18;;;;;;;6.55;81.29;99121.47;7387468;19;20098;-72
2022/09/21 01:45:08;;;;;;;10.00;7.05;;;;;;;6.62;80.99;99115.78;7386169;19;20310;-72
2022/09/21 01:47:36;;;;;;;11.88;7.60;;;;;;;6.64;80.96;99112.09;7384408;19;20014;-71
2022/09/21 01:50:05;;;;;;;11.80;6.55;;;;;;;6.57;81.03;99121.38;7389626;19;20014;-72
2022/09/21 01:52:46;;;;;;;10.48;6.97;;;;;;;6.55;81.02;99113.59;7389405;19;20018;-71
2022/09/21 01:55:20;;;;;;;6.90;5.75;;;;;;;6.54;81.68;99118.97;7392026;19;20022;-71
2022/09/21 01:58:10;;;;;;;11.65;6.80;;;;;;;6.50;81.80;99117.50;7388506;19;20066;-71
2022/09/21 02:00:38;;;;;;;15.17;7.33;;;;;;;6.52;81.63;99121.69;7392087;19;20002;-71
2022/09/21 02:03:14;;;;;;;13.70;6.90;;;;;;;6.48;81.81;99119.44;7390105;19;20014;-72
2022/09/21 02:05:41;;;;;;;10.87;6.87;;;;;;;6.49;81.85;99121.94;7390249;19;20047;-72
2022/09/21 02:08:09;;;;;;;9.73;6.80;;;;;;;6.45;81.65;99114.38;7390678;19;20039;-71
2022/09/21 02:10:43;;;;;;;8.97;6.30;;;;;;;6.41;81.62;99113.75;7389790;19;20018;-72
2022/09/21 02:13:13;;;;;;;12.97;7.40;;;;;;;6.29;81.63;99119.91;7392705;19;20047;-71
2022/09/21 02:15:50;;;;;;;12.17;6.63;;;;;;;6.24;81.90;99122.88;7389491;19;20018;-71
2022/09/21 02:18:56;;;;;;;10.70;7.37;;;;;;;6.29;82.11;99115.50;7388387;19;20026;-71
2022/09/21 02:21:48;;;;;;;11.57;7.17;;;;;;;6.40;82.17;99105.97;7391962;19;20021;-72
2022/09/21 02:24:26;;;;;;;10.13;6.37;;;;;;;6.43;81.96;99109.25;7392761;19;20014;-71
2022/09/21 02:27:03;;;;;;;9.30;6.87;;;;;;;6.44;81.52;99108.28;7389064;19;20027;-72
2022/09/21 02:29:44;;;;;;;11.67;7.53;;;;;;;6.21;82.46;99107.31;7389765;19;20014;-71
2022/09/21 02:32:36;;;;;;;14.50;7.57;;;;;;;6.25;82.81;99102.69;7390840;19;20018;-71
2022/09/21 02:35:27;;;;;;;12.38;6.75;;;;;;;6.41;82.36;99097.16;7390556;19;20482;-72
2022/09/21 02:38:07;;;;;;;12.10;7.03;;;;;;;6.39;82.27;99099.88;7384952;19;20019;-71
2022/09/21 02:40:39;;;;;;;12.30;6.80;;;;;;;6.41;82.69;99098.00;7387276;19;20501;-71
2022/09/21 02:43:12;;;;;;;13.80;7.65;;;;;;;6.40;82.90;99096.34;7388303;19;20514;-72
2022/09/21 02:45:44;;;;;;;12.07;7.35;;;;;;;6.13;82.88;99102.63;7383505;19;20015;-69
2022/09/21 02:48:15;;;;;;;14.53;7.97;;;;;;;6.00;83.13;99099.16;7382727;19;20390;-70
2022/09/21 02:50:51;;;;;;;10.52;7.32;;;;;;;6.10;83.40;99113.31;7383964;19;20010;-70
2022/09/21 02:53:22;;;;;;;11.00;7.00;;;;;;;6.12;83.13;99116.69;7384595;19;20007;-70
2022/09/21 02:55:50;;;;;;;10.97;7.20;;;;;;;6.12;82.94;99113.22;7381264;19;20149;-71
2022/09/21 02:58:24;;;;;;;14.48;7.53;;;;;;;6.14;82.78;99113.97;7384389;19;20429;-71
2022/09/21 03:00:51;;;;;;;11.30;7.10;;;;;;;6.16;82.76;99109.41;7387787;19;20429;-71
2022/09/21 03:03:23;;;;;;;11.77;6.83;;;;;;;6.22;82.84;99109.00;7389068;19;20362;-71
2022/09/21 03:05:52;;;;;;;10.23;6.47;;;;;;;6.30;82.50;99105.81;7391312;19;20029;-72
2022/09/21 03:08:19;;;;;;;13.60;6.70;;;;;;;6.24;82.07;99111.50;7387267;19;20018;-70
2022/09/21 03:10:49;;;;;;;10.97;6.27;;;;;;;6.14;82.28;99111.34;7390862;19;20051;-71
2022/09/21 03:13:17;;;;;;;13.47;6.57;;;;;;;6.08;82.01;99110.00;7390176;19;20010;-71
2022/09/21 03:15:44;;;;;;;12.43;6.87;;;;;;;5.77;82.93;99106.03;7388328;19;20082;-71
2022/09/21 03:18:12;;;;;;;8.40;6.00;;;;;;;5.64;83.06;99106.03;7389243;19;20411;-70
2022/09/21 03:20:44;;;;;;;12.73;6.57;;;;;;;5.49;83.31;99112.34;7390922;19;20489;-71
2022/09/21 03:23:11;;;;;;;;;;;;;;;5.47;83.41;99111.59;7389619;19;20019;-70
2022/09/21 03:25:38;;;;;;;8.73;6.10;;;;;;;5.47;83.47;99122.09;7391321;19;19952;-71
2022/09/21 03:28:05;;;;;;;11.63;6.03;;;;;;;5.40;83.54;99113.00;7386977;19;20035;-70
2022/09/21 03:30:32;;;;;;;11.80;6.03;;;;;;;5.28;83.47;99119.91;7389377;19;20019;-70
2022/09/21 03:32:59;;;;;;;8.33;6.13;;;;;;;5.26;83.80;99120.00;7388472;19;20015;-71
2022/09/21 03:35:25;;;;;;;9.27;6.23;;;;;;;5.24;83.76;99121.91;7388610;19;20019;-70
2022/09/21 03:37:54;;;;;;;13.80;6.37;;;;;;;5.30;83.73;99130.31;7386489;19;20493;-70
2022/09/21 03:40:21;;;;;;;11.73;6.43;;;;;;;5.27;83.91;99126.94;7391893;19;20035;-70
2022/09/21 03:42:48;;;;;;;16.90;5.57;;;;;;;5.31;83.86;99127.56;7395831;19;20366;-70
2022/09/21 03:45:14;;;;;;;11.37;7.57;;;;;;;5.24;84.12;99129.78;7392073;19;20062;-71
2022/09/21 03:47:41;;;;;;;13.03;6.93;;;;;;;5.20;84.31;99128.28;7394067;19;20011;-71
2022/09/21 03:50:08;;;;;;;9.60;6.53;;;;;;;5.23;84.29;99129.88;7395857;19;20537;-72
2022/09/21 03:52:37;;;;;;;23.60;8.20;;;;;;;5.34;83.73;99126.50;7388206;19;20670;-71
2022/09/21 03:55:05;;;;;;;12.00;7.60;;;;;;;5.43;83.53;99125.91;7395450;19;20038;-71
2022/09/21 03:57:33;;;;;;;10.30;7.37;;;;;;;5.49;83.40;99123.69;7395583;19;20021;-71
2022/09/21 04:00:02;;;;;;;13.63;7.13;;;;;;;5.37;83.68;99126.28;7394163;19;20038;-70
2022/09/21 04:02:30;;;;;;;9.97;6.97;;;;;;;5.29;84.21;99124.19;7394042;19;20676;-70
2022/09/21 04:04:57;;;;;;;8.13;6.27;;;;;;;5.34;84.03;99123.88;7393701;19;20023;-71
2022/09/21 04:07:25;;;;;;;12.37;7.30;;;;;;;5.36;84.00;99129.88;7394638;19;20018;-71
2022/09/21 04:09:52;;;;;;;8.93;6.40;;;;;;;5.44;83.69;99130.19;7397631;19;20022;-70
2022/09/21 04:12:22;;;;;;;12.17;6.80;;;;;;;5.49;83.36;99128.09;7395481;19;20014;-70
2022/09/21 04:14:49;;;;;;;12.97;7.80;;;;;;;5.38;83.65;99131.44;7393955;19;20039;-71
2022/09/21 04:17:16;;;;;;;10.53;7.50;;;;;;;5.22;84.03;99134.28;7391724;19;20428;-70
2022/09/21 04:19:46;;;;;;;9.60;7.13;;;;;;;5.45;82.90;99127.47;7393952;19;20051;-70
2022/09/21 04:22:13;;;;;;;10.53;7.10;;;;;;;5.36;82.86;99129.88;7395780;19;20011;-70
2022/09/21 04:24:40;;;;;;;9.77;8.03;;;;;;;5.42;82.59;99135.53;7396912;19;20022;-70
2022/09/21 04:27:07;;;;;;;11.53;7.33;;;;;;;5.46;82.41;99136.19;7395012;19;20042;-70
2022/09/21 04:29:34;;;;;;;11.63;7.17;;;;;;;5.30;82.71;99136.38;7393973;19;20061;-71
2022/09/21 04:32:02;;;;;;;13.90;7.90;;;;;;;5.12;83.36;99143.69;7396660;19;20014;-70
2022/09/21 04:34:30;;;;;;;16.53;7.40;;;;;;;5.11;83.44;99142.03;7394349;19;20015;-70
2022/09/21 04:36:57;;;;;;;14.43;7.57;;;;;;;5.00;83.41;99139.25;7388766;19;20561;-71
2022/09/21 04:39:25;;;;;;;21.93;8.10;;;;;;;4.86;83.30;99132.31;7394966;19;20015;-70
2022/09/21 04:41:52;;;;;;;23.77;7.83;;;;;;;4.83;83.60;99143.84;7392199;19;20021;-70
2022/09/21 04:44:18;;;;;;;11.27;7.40;;;;;;;4.88;83.40;99145.34;7391351;19;20526;-71
2022/09/21 04:46:45;;;;;;;24.73;7.10;;;;;;;4.80;83.52;99149.28;7392911;19;20023;-71
2022/09/21 04:49:12;;;;;;;20.90;6.97;;;;;;;4.78;83.17;99150.34;7395351;19;20018;-70
2022/09/21 04:51:39;;;;;;;17.07;6.80;;;;;;;4.75;83.30;99155.78;7393260;19;20019;-71
2022/09/21 04:54:06;;;;;;;9.07;6.53;;;;;;;4.72;83.08;99161.22;7393178;19;20081;-71
2022/09/21 04:56:33;;;;;;;10.07;7.23;;;;;;;4.86;82.61;99160.31;7391640;19;20556;-70
2022/09/21 04:59:00;;;;;;;7.40;6.07;;;;;;;4.94;82.25;99155.41;7392303;19;20458;-70
2022/09/21 05:01:27;;;;;;;7.50;5.77;;;;;;;4.90;82.36;99161.78;7392046;19;21279;-71
2022/09/21 05:03:54;;;;;;;8.70;7.10;;;;;;;4.90;82.37;99154.78;7390993;19;20023;-71
2022/09/21 05:06:21;;;;;;;9.93;7.10;;;;;;;4.91;82.89;99166.09;7388310;19;20360;-71
2022/09/21 05:11:33;;;;;;;53.27;8.50;;;;;;;5.12;83.56;99166.47;7394083;19;20491;-71
2022/09/21 05:14:00;;;;;;;39.27;8.77;;;;;;;5.19;83.68;99168.59;7392984;19;20018;-70
2022/09/21 05:16:26;;;;;;;46.30;7.53;;;;;;;5.06;84.12;99159.84;7392104;19;20015;-71
2022/09/21 05:18:56;;;;;;;49.10;7.50;;;;;;;5.06;84.04;99165.09;7388406;19;20054;-71
2022/09/21 05:21:22;;;;;;;123.83;11.80;;;;;;;4.96;84.26;99170.09;7390165;19;20078;-71
2022/09/21 05:23:49;;;;;;;34.40;7.90;;;;;;;5.09;84.64;99164.06;7381973;19;20047;-71
2022/09/21 05:26:16;;;;;;;36.87;8.93;;;;;;;5.27;84.76;99170.69;7388252;19;20024;-71
2022/09/21 05:28:43;;;;;;;62.03;8.60;;;;;;;5.26;84.28;99172.47;7386887;19;20454;-71
2022/09/21 05:31:10;;;;;;;22.07;6.50;;;;;;;5.17;84.00;99169.63;7390824;19;20046;-71
2022/09/21 05:33:50;;;;;;;14.80;6.53;;;;;;;5.16;83.64;99174.03;7392376;19;20512;-71
2022/09/21 05:36:29;;;;;;;15.43;6.73;;;;;;;5.15;83.53;99179.38;7388919;19;20007;-71
2022/09/21 05:38:56;;;;;;;18.53;7.60;;;;;;;5.18;82.96;99176.53;7390403;19;20029;-71
2022/09/21 05:41:23;;;;;;;13.47;7.63;;;;;;;5.28;82.67;99172.38;7389151;19;20006;-69
2022/09/21 05:43:50;;;;;;;10.87;8.00;;;;;;;5.31;82.66;99180.03;7389506;19;20021;-71
2022/09/21 05:46:31;;;;;;;20.20;9.17;;;;;;;5.29;82.96;99176.66;7390426;19;20034;-69
2022/09/21 05:49:21;;;;;;;19.77;9.97;;;;;;;5.25;83.06;99176.03;7390988;19;20536;-70
2022/09/21 05:52:01;;;;;;;17.20;9.87;;;;;;;5.35;83.07;99180.69;7389586;19;20043;-71
2022/09/21 05:54:40;;;;;;;17.63;9.23;;;;;;;5.44;83.09;99178.25;7389465;19;21276;-71
2022/09/21 05:57:25;;;;;;;17.80;10.07;;;;;;;5.48;83.02;99176.28;7391448;19;20047;-71
2022/09/21 06:00:09;;;;;;;14.37;8.07;;;;;;;5.44;83.32;99194.00;7392939;19;20031;-71
2022/09/21 06:03:23;;;;;;;14.10;8.82;;;;;;;5.51;83.47;99186.56;7388341;19;20038;-71
2022/09/21 06:05:50;;;;;;;14.33;9.17;;;;;;;5.52;83.57;99192.66;7390106;19;20031;-71
2022/09/21 06:08:16;;;;;;;10.60;7.63;;;;;;;5.69;83.81;99187.94;7389767;19;20389;-71
2022/09/21 06:10:43;;;;;;;10.40;7.50;;;;;;;5.78;83.42;99196.13;7391900;19;20039;-71
2022/09/21 06:13:10;;;;;;;22.37;8.33;;;;;;;5.73;83.40;99194.66;7389142;19;20018;-71
2022/09/21 06:15:37;;;;;;;14.90;8.87;;;;;;;5.86;83.35;99199.91;7392862;19;20039;-71
2022/09/21 06:18:07;;;;;;;12.63;8.90;;;;;;;6.04;83.30;99200.47;7390316;19;20129;-72
2022/09/21 06:20:34;;;;;;;18.80;9.63;;;;;;;5.96;83.81;99204.56;7391257;19;20018;-71
2022/09/21 06:23:05;;;;;;;33.50;9.47;;;;;;;5.81;84.20;99198.53;7390100;19;20015;-71
2022/09/21 06:25:32;;;;;;;12.93;7.97;;;;;;;6.04;84.42;99205.72;7388827;19;20014;-71
2022/09/21 06:28:06;;;;;;;9.40;7.20;;;;;;;6.46;84.04;99202.81;7387207;19;20054;-71
2022/09/21 06:30:33;;;;;;;39.27;8.60;;;;;;;6.45;83.73;99199.34;7389363;19;20015;-71
2022/09/21 06:33:01;;;;;;;42.10;8.90;;;;;;;6.31;84.12;99204.72;7389753;19;20022;-71
2022/09/21 06:35:28;;;;;;;41.37;9.10;;;;;;;6.47;84.36;99212.38;7392187;19;20039;-70
2022/09/21 06:37:59;;;;;;;112.10;11.90;;;;;;;6.36;84.27;99205.25;7388381;19;20022;-71
2022/09/21 06:40:27;;;;;;;71.40;10.60;;;;;;;6.35;84.29;99208.84;7389716;19;20685;-72
2022/09/21 06:42:58;;;;;;;51.17;9.57;;;;;;;6.47;84.22;99207.94;7387719;19;20015;-71
2022/09/21 06:45:26;;;;;;;38.50;11.27;;;;;;;6.35;84.49;99203.56;7386878;19;20034;-71
2022/09/21 06:47:53;;;;;;;14.17;9.03;;;;;;;6.39;84.26;99207.66;7387125;19;20018;-71
2022/09/21 06:50:20;;;;;;;35.30;9.27;;;;;;;6.48;84.50;99211.44;7393110;19;20018;-71
2022/09/21 06:52:46;;;;;;;38.03;9.97;;;;;;;6.59;84.86;99212.34;7388116;19;20048;-70
2022/09/21 06:55:16;;;;;;;28.47;10.87;;;;;;;6.94;84.81;99211.56;7391160;19;20017;-71
2022/09/21 06:57:43;;;;;;;25.27;11.00;;;;;;;7.21;84.76;99208.72;7388806;19;20023;-71
2022/09/21 07:00:11;;;;;;;19.10;10.80;;;;;;;7.45;83.97;99206.03;7388760;19;20010;-71
2022/09/21 07:02:42;;;;;;;14.57;10.50;;;;;;;7.66;83.30;99208.84;7388135;19;20021;-71
2022/09/21 07:05:09;;;;;;;15.30;10.37;;;;;;;7.44;82.56;99204.34;7389774;19;20510;-71
2022/09/21 07:07:35;;;;;;;14.40;9.87;;;;;;;7.41;82.94;99201.09;7387922;19;20481;-71
2022/09/21 07:10:03;;;;;;;20.67;9.23;;;;;;;7.53;82.82;99201.97;7387499;19;20794;-71
2022/09/21 07:12:34;;;;;;;16.67;10.20;;;;;;;7.44;82.44;99203.50;7387584;19;20082;-71
2022/09/21 07:15:02;;;;;;;13.00;9.87;;;;;;;7.34;82.49;99203.34;7381840;19;20047;-72
2022/09/21 07:17:37;;;;;;;14.87;10.67;;;;;;;7.24;82.51;99205.84;7389357;19;20011;-71
2022/09/21 07:20:05;;;;;;;12.80;10.00;;;;;;;7.29;82.38;99200.22;7389634;19;20798;-71
2022/09/21 07:22:31;;;;;;;19.17;11.00;;;;;;;7.50;82.04;99205.66;7387575;19;20023;-71
2022/09/21 07:24:58;;;;;;;13.00;10.20;;;;;;;7.68;81.87;99200.81;7386550;19;20011;-72
2022/09/21 07:27:26;;;;;;;14.33;10.33;;;;;;;7.67;82.33;99199.13;7388005;19;20406;-71
2022/09/21 07:29:53;;;;;;;13.00;10.43;;;;;;;7.76;82.22;99203.69;7388497;19;20015;-71
2022/09/21 07:32:20;;;;;;;17.52;10.20;;;;;;;7.86;82.32;99209.09;7388441;19;20031;-72
2022/09/21 07:34:47;;;;;;;15.33;11.43;;;;;;;7.68;82.28;99199.00;7390008;19;20380;-72
2022/09/21 07:37:14;;;;;;;14.70;11.23;;;;;;;7.96;82.54;99207.44;7387115;19;20022;-72
2022/09/21 07:39:40;;;;;;;15.43;10.52;;;;;;;8.18;82.50;99205.75;7388508;19;20035;-72
2022/09/21 07:42:07;;;;;;;15.90;10.18;;;;;;;8.31;82.10;99204.66;7389272;19;20025;-72
2022/09/21 07:44:34;;;;;;;20.60;10.63;;;;;;;8.54;81.75;99209.97;7385572;19;20014;-72
2022/09/21 07:47:02;;;;;;;14.15;9.85;;;;;;;8.57;81.58;99212.34;7388365;19;20046;-72
2022/09/21 07:49:29;;;;;;;14.18;10.25;;;;;;;8.77;81.29;99211.59;7388541;19;20129;-71
2022/09/21 07:51:56;;;;;;;15.13;10.43;;;;;;;8.87;81.00;99216.94;7385792;19;20608;-72
2022/09/21 07:54:28;;;;;;;;;;;;;;;8.76;80.54;99209.91;7389164;19;20025;-72
2022/09/21 07:59:40;;;;;;;15.10;9.75;;;;;;;8.93;79.79;99207.72;7388803;19;20015;-71
2022/09/21 08:02:07;;;;;;;16.75;10.13;;;;;;;9.13;79.96;99212.19;7387523;19;20015;-71
2022/09/21 08:04:34;;;;;;;15.50;11.20;;;;;;;9.24;79.39;99213.94;7388206;19;20446;-72
2022/09/21 08:07:00;;;;;;;15.98;10.75;;;;;;;9.34;79.51;99208.75;7387510;19;20018;-72
2022/09/21 08:09:27;;;;;;;18.73;10.45;;;;;;;9.25;78.12;99210.34;7387718;19;20022;-72
2022/09/21 08:11:54;;;;;;;12.85;9.85;;;;;;;9.47;77.63;99209.41;7387608;19;20010;-71
2022/09/21 08:14:25;;;;;;;13.90;8.45;;;;;;;9.58;77.10;99209.31;7388846;19;20070;-72
2022/09/21 08:16:52;;;;;;;14.52;7.90;;;;;;;9.82;76.79;99211.72;7385241;19;20039;-71
2022/09/21 08:19:19;;;;;;;8.68;6.88;;;;;;;10.13;75.96;99209.09;7388349;19;20011;-72
2022/09/21 08:21:50;;;;;;;14.50;6.85;;;;;;;10.29;74.91;99206.84;7386944;19;20368;-72
2022/09/21 08:24:24;;;;;;;14.20;8.20;;;;;;;10.52;75.29;99207.44;7388741;19;20011;-71
2022/09/21 08:26:51;;;;;;;13.95;8.25;;;;;;;10.90;74.58;99211.19;7393147;19;20018;-72
2022/09/21 08:29:18;;;;;;;16.20;8.45;;;;;;;11.17;74.09;99207.00;7393357;19;20014;-72
2022/09/21 08:31:45;;;;;;;12.57;8.23;;;;;;;11.28;73.69;99209.50;7392767;19;20043;-72
2022/09/21 08:34:13;;;;;;;11.52;7.30;;;;;;;11.68;73.58;99207.66;7392679;19;20051;-71
2022/09/21 08:36:39;;;;;;;10.88;6.80;;;;;;;11.83;72.89;99209.72;7390697;19;20022;-72
2022/09/21 08:39:07;;;;;;;8.75;7.00;;;;;;;11.69;70.67;99207.53;7392528;19;20014;-71
2022/09/21 08:41:57;;;;;;;9.00;6.55;;;;;;;12.03;70.46;99207.91;7393386;19;20030;-71
2022/09/21 08:44:27;;;;;;;10.57;6.38;;;;;;;12.16;69.54;99212.03;7389532;19;20514;-72
2022/09/21 08:47:08;;;;;;;9.68;6.63;;;;;;;12.27;69.25;99212.69;7393799;19;20022;-72
2022/09/21 08:49:37;;;;;;;14.15;6.18;;;;;;;12.44;68.47;99215.56;7394520;19;20388;-72
2022/09/21 08:52:10;;;;;;;7.05;5.55;;;;;;;12.44;69.23;99212.91;7393898;19;20402;-72
2022/09/21 08:54:45;;;;;;;6.60;5.68;;;;;;;12.50;68.65;99207.81;7395185;19;20010;-72
2022/09/21 08:57:13;;;;;;;11.85;5.20;;;;;;;12.33;68.13;99205.13;7392429;19;20039;-71
2022/09/21 08:59:45;;;;;;;9.30;5.65;;;;;;;12.56;67.51;99209.06;7396118;19;20018;-72
2022/09/21 09:02:51;;;;;;;9.30;4.78;;;;;;;12.80;66.50;99191.75;7393724;19;20039;-71
2022/09/21 09:05:42;;;;;;;6.85;5.18;;;;;;;12.91;65.71;99197.66;7388923;19;20053;-71
2022/09/21 09:08:34;;;;;;;8.10;5.03;;;;;;;13.11;65.83;99185.09;7391806;19;20039;-72
2022/09/21 09:11:05;;;;;;;7.55;5.00;;;;;;;13.17;65.77;99187.13;7392190;19;20014;-71
2022/09/21 09:13:54;;;;;;;6.95;4.63;;;;;;;13.32;65.75;99189.25;7392775;19;20019;-72
2022/09/21 09:16:46;;;;;;;6.60;4.50;;;;;;;13.21;66.84;99184.97;7391739;19;20011;-72
2022/09/21 09:19:27;;;;;;;6.20;4.72;;;;;;;13.38;66.72;99180.69;7393792;19;20026;-72
2022/09/21 09:21:55;;;;;;;6.97;4.47;;;;;;;13.59;66.07;99183.84;7393496;19;20019;-72
2022/09/21 09:24:41;;;;;;;8.80;4.32;;;;;;;13.68;66.09;99175.91;7391349;19;20018;-72
2022/09/21 09:27:19;;;;;;;6.60;3.65;;;;;;;13.89;63.27;99178.22;7390206;19;20046;-72
2022/09/21 09:30:02;;;;;;;5.97;4.10;;;;;;;13.82;63.45;99183.31;7392491;19;20023;-72
2022/09/21 09:32:42;;;;;;;6.07;4.43;;;;;;;13.69;62.81;99167.81;7393877;19;20014;-72
2022/09/21 09:35:24;;;;;;;4.93;3.83;;;;;;;13.81;63.19;99169.19;7388372;19;20043;-72
2022/09/21 09:37:53;;;;;;;4.60;4.07;;;;;;;13.84;63.81;99173.34;7387405;19;20018;-72
2022/09/21 09:40:53;;;;;;;8.88;4.32;;;;;;;13.87;63.79;99175.69;7392707;19;20299;-72
2022/09/21 09:43:37;;;;;;;6.85;4.22;;;;;;;13.65;63.26;99169.09;7392865;19;20018;-73
2022/09/21 09:46:19;;;;;;;4.97;3.33;;;;;;;13.81;62.57;99185.16;7391357;19;20014;-71
2022/09/21 09:49:03;;;;;;;5.70;2.88;;;;;;;13.81;61.54;99176.34;7391243;19;20057;-72
2022/09/21 09:51:34;;;;;;;7.57;2.92;;;;;;;13.81;61.66;99165.69;7392626;19;20042;-72
2022/09/21 09:54:02;;;;;;;4.93;3.08;;;;;;;13.31;64.31;99164.50;7389217;19;20022;-72
2022/09/21 09:56:34;;;;;;;4.13;2.95;;;;;;;13.11;65.31;99166.50;7392438;19;20082;-72
2022/09/21 09:59:07;;;;;;;5.82;4.03;;;;;;;13.17;65.99;99157.91;7388271;19;20019;-71
2022/09/21 10:01:43;;;;;;;5.57;3.10;;;;;;;13.59;64.39;99159.09;7388895;19;20022;-72
2022/09/21 10:04:11;;;;;;;6.25;3.35;;;;;;;13.33;65.52;99161.72;7389338;19;20018;-72
2022/09/21 10:06:39;;;;;;;8.18;2.90;;;;;;;13.18;66.24;99158.72;7387541;19;20053;-71
2022/09/21 10:09:18;;;;;;;7.35;3.08;;;;;;;13.40;63.47;99152.13;7390968;19;20021;-72
2022/09/21 10:11:45;;;;;;;5.68;3.22;;;;;;;13.93;63.70;99148.50;7392374;19;20018;-72
2022/09/21 10:14:19;;;;;;;4.82;3.00;;;;;;;14.22;62.08;99137.47;7392315;19;20007;-71
2022/09/21 10:16:50;;;;;;;4.10;2.65;;;;;;;14.31;62.26;99145.50;7389615;19;20014;-71
2022/09/21 10:19:22;;;;;;;2.70;1.88;;;;;;;14.31;61.71;99143.66;7392372;19;20027;-71
2022/09/21 10:22:00;;;;;;;2.90;1.95;;;;;;;14.27;60.86;99134.34;7390384;19;20018;-72
2022/09/21 10:24:32;;;;;;;3.05;1.80;;;;;;;13.91;65.51;99142.50;7388919;19;20037;-72
2022/09/21 10:27:13;;;;;;;4.20;2.28;;;;;;;13.84;64.70;99139.59;7388039;19;20376;-73
2022/09/21 10:29:42;;;;;;;3.00;1.63;;;;;;;13.93;60.74;99140.50;7391448;19;20014;-72
2022/09/21 10:32:11;;;;;;;4.53;1.50;;;;;;;14.17;62.36;99134.47;7391930;19;20018;-72
2022/09/21 10:34:59;;;;;;;2.90;1.35;;;;;;;14.35;60.58;99131.72;7392542;19;20025;-72
2022/09/21 10:37:36;;;;;;;3.33;1.40;;;;;;;14.45;59.11;99126.22;7389407;19;20018;-73
2022/09/21 10:40:04;;;;;;;2.17;1.10;;;;;;;14.44;58.54;99133.38;7392701;19;20015;-73
2022/09/21 10:42:35;;;;;;;3.10;1.48;;;;;;;14.37;58.89;99128.88;7389266;19;20018;-73
2022/09/21 10:45:19;;;;;;;4.50;1.55;;;;;;;14.06;59.25;99126.78;7388309;19;20150;-72
2022/09/21 10:47:51;;;;;;;3.38;1.52;;;;;;;13.91;58.99;99123.88;7387485;19;20415;-73
2022/09/21 10:50:24;;;;;;;1.45;1.15;;;;;;;14.12;59.58;99119.97;7390408;19;20014;-72
2022/09/21 10:52:59;;;;;;;4.20;1.40;;;;;;;14.16;60.12;99114.16;7391100;19;20042;-72
2022/09/21 10:55:28;;;;;;;4.50;1.42;;;;;;;14.43;60.56;99115.75;7388424;19;20568;-71
2022/09/21 10:57:55;;;;;;;5.15;1.10;;;;;;;14.59;59.17;99122.16;7387128;19;20018;-73
2022/09/21 11:00:33;;;;;;;2.20;1.20;;;;;;;14.52;58.50;99116.59;7389519;19;20021;-73
2022/09/21 11:03:34;;;;;;;2.47;1.02;;;;;;;14.31;56.85;99118.88;7389796;19;20022;-72
2022/09/21 11:06:14;;;;;;;3.28;1.00;;;;;;;14.42;57.68;99113.25;7389622;19;20010;-73
2022/09/21 11:08:48;;;;;;;2.85;1.10;;;;;;;14.38;58.88;99118.06;7384520;19;20026;-73
2022/09/21 11:11:26;;;;;;;2.60;0.90;;;;;;;14.35;58.66;99118.41;7387229;19;20015;-72
2022/09/21 11:14:03;;;;;;;1.63;1.02;;;;;;;14.21;57.23;99111.03;7389346;19;20019;-73
2022/09/21 11:16:40;;;;;;;1.50;0.70;;;;;;;14.15;57.26;99117.00;7387220;19;20046;-73
2022/09/21 11:19:17;;;;;;;4.38;0.77;;;;;;;14.21;57.15;99114.50;7389253;19;20050;-71
2022/09/21 11:22:01;;;;;;;1.27;0.57;;;;;;;14.32;55.80;99107.22;7382245;19;20053;-72
2022/09/21 11:24:35;;;;;;;1.17;0.65;;;;;;;14.37;57.41;99107.56;7388227;19;20738;-73
2022/09/21 11:27:10;;;;;;;3.97;0.80;;;;;;;14.23;61.87;99106.38;7390687;19;20023;-73
2022/09/21 11:29:50;;;;;;;2.92;0.70;;;;;;;14.34;57.92;99100.75;7388159;19;20014;-73
2022/09/21 11:32:48;;;;;;;1.58;0.77;;;;;;;14.39;57.60;99101.09;7390068;19;20014;-73
2022/09/21 11:35:31;;;;;;;1.30;0.65;;;;;;;14.42;55.54;99095.44;7386899;19;20006;-72
2022/09/21 11:38:31;;;;;;;1.23;0.60;;;;;;;14.50;58.33;99103.44;7384978;19;20019;-73
2022/09/21 11:41:17;;;;;;;1.23;0.50;;;;;;;14.40;52.77;99089.47;7384489;19;20018;-73
2022/09/21 11:43:50;;;;;;;1.15;0.70;;;;;;;14.47;55.06;99090.47;7384204;19;20023;-71
2022/09/21 11:46:39;;;;;;;2.88;0.63;;;;;;;14.60;52.78;99079.38;7387060;19;20664;-72
2022/09/21 11:49:38;;;;;;;1.95;0.60;;;;;;;14.90;57.10;99079.72;7386859;19;20023;-73
2022/09/21 11:52:31;;;;;;;1.42;0.45;;;;;;;15.18;50.75;99072.22;7386954;19;20022;-73
2022/09/21 11:55:15;;;;;;;2.03;0.63;;;;;;;15.39;50.31;99074.38;7386214;19;20023;-72
2022/09/21 11:58:09;;;;;;;0.85;0.55;;;;;;;15.60;48.76;99071.16;7383407;19;20014;-73
2022/09/21 12:00:44;;;;;;;2.65;0.63;;;;;;;15.65;54.29;99062.66;7381475;19;20041;-73
2022/09/21 12:03:36;;;;;;;3.28;0.63;;;;;;;15.72;51.13;99064.50;7397688;19;20494;-73
2022/09/21 12:06:27;;;;;;;2.80;0.50;;;;;;;15.68;50.39;99059.63;7389171;19;20026;-72